TAF and METAR

METAR for Nampula Airport

FQNP 011300Z 22009KT 180V270 9999 SCT020 30/26 Q1013
Report created 1. apr 15:00
wind 9 knots from SW (220°) Wind direction varies from S to W visibility > 10km scattered clouds (~50% cover) at 2000 feet Temperature 30° with dewpoint at 26° (Humidity 79.25%) Pressure 1013 hPa
No TAF available for Nampula Airport